createdAt,value
2018-01-22T00:00:13.722Z,76.90
2018-01-22T00:02:40.507Z,76.40
2018-01-22T00:05:07.243Z,76.10
2018-01-22T00:07:33.946Z,77.80
2018-01-22T00:10:00.658Z,75.10
2018-01-22T00:12:27.350Z,74.70
2018-01-22T00:14:54.787Z,74.10
2018-01-22T00:17:21.457Z,74.10
2018-01-22T00:19:48.941Z,75.70
2018-01-22T00:22:15.617Z,75.60
2018-01-22T00:24:42.345Z,74.50
2018-01-22T00:27:10.656Z,74.80
2018-01-22T00:29:37.389Z,74.80
2018-01-22T00:32:04.042Z,76.20
2018-01-22T00:34:30.857Z,76.30
2018-01-22T00:36:58.598Z,76.30
2018-01-22T00:39:25.294Z,78.10
2018-01-22T00:41:52.128Z,78.40
2018-01-22T00:44:18.843Z,79.10
2018-01-22T00:46:45.530Z,80.20
2018-01-22T00:49:13.765Z,83.00
2018-01-22T00:51:40.532Z,82.70
2018-01-22T00:54:07.194Z,83.20
2018-01-22T00:56:33.982Z,84.10
2018-01-22T00:59:01.419Z,87.10
2018-01-22T01:01:28.085Z,87.10
2018-01-22T01:03:55.547Z,90.10
2018-01-22T01:06:22.975Z,91.20
2018-01-22T01:08:49.661Z,91.20
2018-01-22T01:11:16.386Z,91.50
2018-01-22T01:13:43.801Z,92.80
2018-01-22T01:16:10.502Z,92.80
2018-01-22T01:18:37.281Z,93.10
2018-01-22T01:21:03.941Z,93.60
2018-01-22T01:23:30.647Z,93.90
2018-01-22T01:25:57.357Z,94.10
2018-01-22T01:28:24.787Z,94.90
2018-01-22T01:30:51.478Z,94.80
2018-01-22T01:33:18.175Z,94.80
2018-01-22T01:35:44.864Z,95.50
2018-01-22T01:38:11.531Z,95.50
2018-01-22T01:40:38.250Z,96.20
2018-01-22T01:43:04.910Z,96.70
2018-01-22T01:45:31.616Z,96.90
2018-01-22T01:47:58.304Z,97.10
2018-01-22T01:50:24.975Z,97.70
2018-01-22T01:52:51.650Z,97.80
2018-01-22T01:55:20.206Z,98.30
2018-01-22T01:57:47.027Z,98.30
2018-01-22T02:00:13.752Z,99.00
2018-01-22T02:02:40.475Z,98.80
2018-01-22T02:05:07.893Z,98.30
2018-01-22T02:07:34.562Z,98.30
2018-01-22T02:10:01.331Z,98.10
2018-01-22T02:12:28.770Z,98.00
2018-01-22T02:14:55.461Z,98.00
2018-01-22T02:17:22.145Z,98.30
2018-01-22T02:19:48.835Z,98.40
2018-01-22T02:22:15.595Z,98.10
2018-01-22T02:24:42.347Z,98.20
2018-01-22T02:27:09.017Z,98.60
2018-01-22T02:29:35.698Z,99.10
2018-01-22T02:32:02.410Z,99.40
2018-01-22T02:34:29.097Z,99.10
2018-01-22T02:36:55.774Z,99.20
2018-01-22T02:39:22.471Z,99.40
2018-01-22T02:41:49.134Z,99.80
2018-01-22T02:44:15.810Z,99.90
2018-01-22T02:46:42.502Z,99.90
2018-01-22T02:49:09.205Z,99.90
2018-01-22T02:51:35.876Z,99.90
2018-01-22T02:54:03.329Z,99.90
2018-01-22T02:56:30.773Z,99.90
2018-01-22T02:58:57.449Z,99.90
2018-01-22T03:01:24.914Z,99.90
2018-01-22T03:03:51.601Z,99.90
2018-01-22T03:06:18.294Z,99.90
2018-01-22T03:08:45.730Z,99.90
2018-01-22T03:11:12.404Z,99.90
2018-01-22T03:13:40.211Z,99.90
2018-01-22T03:16:07.053Z,99.90
2018-01-22T03:18:35.803Z,99.90
2018-01-22T03:21:10.276Z,99.90
2018-01-22T03:23:37.087Z,99.90
2018-01-22T03:26:03.779Z,99.90
2018-01-22T03:28:30.699Z,99.90
2018-01-22T03:30:57.436Z,99.90
2018-01-22T03:33:25.176Z,98.00
2018-01-22T03:35:52.659Z,97.90
2018-01-22T03:38:19.344Z,97.80
2018-01-22T03:40:46.018Z,97.60
2018-01-22T03:43:13.474Z,97.90
2018-01-22T03:45:40.880Z,97.60
2018-01-22T03:48:07.585Z,97.60
2018-01-22T03:50:35.094Z,96.40
2018-01-22T03:53:01.903Z,96.40
2018-01-22T03:55:29.683Z,95.70
2018-01-22T03:57:56.396Z,95.90
2018-01-22T04:00:23.820Z,95.30
2018-01-22T04:02:50.486Z,95.30
2018-01-22T04:05:17.211Z,95.80
2018-01-22T04:07:43.869Z,94.90
2018-01-22T04:10:10.585Z,94.20
2018-01-22T04:12:37.306Z,94.20
2018-01-22T04:15:03.985Z,94.30
2018-01-22T04:17:30.704Z,93.90
2018-01-22T04:19:57.395Z,93.70
2018-01-22T04:22:24.099Z,93.40
2018-01-22T04:24:50.807Z,94.10
2018-01-22T04:27:17.533Z,94.90
2018-01-22T04:29:44.992Z,95.10
2018-01-22T04:32:12.461Z,95.00
2018-01-22T04:34:39.915Z,95.30
2018-01-22T04:37:07.296Z,95.70
2018-01-22T04:39:33.966Z,95.70
2018-01-22T04:42:00.646Z,95.00
2018-01-22T04:44:27.308Z,94.60
2018-01-22T04:46:54.718Z,94.90
2018-01-22T04:49:22.325Z,95.30
2018-01-22T04:51:49.846Z,94.90
2018-01-22T04:54:16.502Z,94.80
2018-01-22T04:56:43.195Z,95.30
2018-01-22T04:59:09.854Z,95.20
2018-01-22T05:01:36.514Z,94.90
2018-01-22T05:04:03.267Z,95.10
2018-01-22T05:06:29.918Z,94.90
2018-01-22T05:08:56.603Z,95.10
2018-01-22T05:11:29.225Z,94.40
2018-01-22T05:13:55.932Z,94.40
2018-01-22T05:16:22.684Z,94.00
2018-01-22T05:18:49.462Z,93.50
2018-01-22T05:21:16.155Z,93.50
2018-01-22T05:23:43.597Z,92.10
2018-01-22T05:26:10.403Z,92.10
2018-01-22T05:28:37.117Z,92.70
2018-01-22T05:31:03.873Z,93.00
2018-01-22T05:33:30.661Z,93.00
2018-01-22T05:35:57.377Z,93.50
2018-01-22T05:38:24.103Z,93.50
2018-01-22T05:40:50.900Z,93.60
2018-01-22T05:43:17.590Z,93.70
2018-01-22T05:45:44.302Z,94.30
2018-01-22T05:48:25.673Z,94.50
2018-01-22T05:50:52.487Z,94.50
2018-01-22T05:53:19.187Z,94.90
2018-01-22T05:55:47.833Z,94.50
2018-01-22T05:58:14.728Z,94.50
2018-01-22T06:00:41.534Z,94.30
2018-01-22T06:03:08.382Z,93.50
2018-01-22T06:05:36.120Z,92.80
2018-01-22T06:08:03.890Z,92.80
2018-01-22T06:10:30.657Z,93.10
2018-01-22T06:12:58.406Z,93.00
2018-01-22T06:15:31.110Z,93.40
2018-01-22T06:17:57.836Z,94.60
2018-01-22T06:20:24.560Z,94.90
2018-01-22T06:22:51.263Z,93.70
2018-01-22T06:25:17.945Z,93.40
2018-01-22T06:27:44.641Z,93.60
2018-01-22T06:30:18.329Z,93.90
2018-01-22T06:32:53.787Z,93.60
2018-01-22T06:35:20.515Z,93.50
2018-01-22T06:37:47.227Z,94.10
2018-01-22T06:40:13.909Z,93.90
2018-01-22T06:42:40.604Z,94.10
2018-01-22T06:45:08.039Z,93.80
2018-01-22T06:47:34.714Z,93.80
2018-01-22T06:50:01.366Z,94.00
2018-01-22T06:52:28.017Z,93.90
2018-01-22T06:54:54.735Z,93.70
2018-01-22T06:57:22.147Z,93.60
2018-01-22T06:59:48.816Z,93.60
2018-01-22T07:02:15.538Z,93.80
2018-01-22T07:04:42.262Z,93.80
2018-01-22T07:07:08.910Z,93.40
2018-01-22T07:09:35.562Z,92.80
2018-01-22T07:12:02.229Z,93.00
2018-01-22T07:14:28.896Z,92.70
2018-01-22T07:16:57.255Z,92.50
2018-01-22T07:19:24.274Z,92.50
2018-01-22T07:21:56.646Z,92.20
2018-01-22T07:24:23.379Z,92.40
2018-01-22T07:26:50.143Z,92.00
2018-01-22T07:29:16.798Z,92.10
2018-01-22T07:31:43.488Z,92.10
2018-01-22T07:34:10.224Z,92.60
2018-01-22T07:36:37.656Z,92.60
2018-01-22T07:39:04.419Z,92.60
2018-01-22T07:41:31.925Z,93.00
2018-01-22T07:43:58.594Z,92.90
2018-01-22T07:46:25.251Z,92.70
2018-01-22T07:48:51.993Z,92.90
2018-01-22T07:51:18.678Z,92.90
2018-01-22T07:53:45.363Z,93.00
2018-01-22T07:56:12.081Z,92.60
2018-01-22T07:58:38.759Z,92.60
2018-01-22T08:01:05.442Z,92.90
2018-01-22T08:03:32.191Z,93.30
2018-01-22T08:05:59.598Z,92.30
2018-01-22T08:08:26.307Z,92.30
2018-01-22T08:10:53.015Z,91.50
2018-01-22T08:13:20.401Z,89.60
2018-01-22T08:15:47.122Z,89.60
2018-01-22T08:18:14.654Z,88.50
2018-01-22T08:20:41.345Z,88.50
2018-01-22T08:23:08.046Z,85.50
2018-01-22T08:25:34.805Z,83.90
2018-01-22T08:28:02.264Z,81.20
2018-01-22T08:30:30.037Z,82.10
2018-01-22T08:32:58.363Z,79.50
2018-01-22T08:35:25.090Z,79.40
2018-01-22T08:37:51.777Z,77.40
2018-01-22T08:40:18.472Z,74.80
2018-01-22T08:42:45.178Z,72.80
2018-01-22T08:45:11.849Z,71.50
2018-01-22T08:47:38.557Z,69.80
2018-01-22T08:50:05.226Z,67.50
2018-01-22T08:52:32.687Z,64.50
2018-01-22T08:55:00.171Z,62.90
2018-01-22T08:57:26.912Z,62.90
2018-01-22T08:59:53.638Z,64.70
2018-01-22T09:02:21.092Z,63.20
2018-01-22T09:04:48.529Z,64.00
2018-01-22T09:07:15.207Z,63.90
2018-01-22T09:09:41.995Z,60.10
2018-01-22T09:12:09.709Z,58.70
2018-01-22T09:14:37.148Z,58.40
2018-01-22T09:17:03.978Z,58.30
2018-01-22T09:19:30.699Z,58.50
2018-01-22T09:21:57.388Z,54.90
2018-01-22T09:24:24.122Z,54.60
2018-01-22T09:26:50.986Z,52.90
2018-01-22T09:29:17.723Z,52.50
2018-01-22T09:31:44.442Z,52.70
2018-01-22T09:34:11.119Z,52.70
2018-01-22T09:36:38.587Z,47.70
2018-01-22T09:39:06.070Z,47.80
2018-01-22T09:41:32.775Z,47.80
2018-01-22T09:43:59.436Z,47.70
2018-01-22T09:46:26.915Z,45.00
2018-01-22T09:48:53.684Z,45.00
2018-01-22T09:51:20.356Z,45.40
2018-01-22T09:53:47.063Z,43.90
2018-01-22T09:56:13.718Z,43.10
2018-01-22T09:58:40.422Z,44.60
2018-01-22T10:01:07.864Z,47.70
2018-01-22T10:03:34.568Z,47.70
2018-01-22T10:06:02.030Z,50.50
2018-01-22T10:08:28.758Z,50.50
2018-01-22T10:10:55.457Z,50.50
2018-01-22T10:23:16.722Z,35.20
2018-01-22T10:25:43.389Z,34.60
2018-01-22T10:28:10.804Z,36.60
2018-01-22T10:30:37.520Z,36.60
2018-01-22T10:33:11.862Z,38.40
2018-01-22T10:35:38.578Z,38.40
2018-01-22T10:38:06.016Z,37.10
2018-01-22T10:40:32.725Z,37.10
2018-01-22T10:42:59.455Z,35.90
2018-01-22T10:47:54.464Z,36.60
2018-01-22T10:50:21.984Z,33.50
2018-01-22T11:00:13.716Z,33.20
2018-01-22T11:02:40.456Z,30.50
2018-01-22T11:12:32.148Z,28.90
2018-01-22T11:14:59.595Z,27.60
2018-01-22T11:17:27.022Z,26.90
2018-01-22T11:19:53.756Z,26.40
2018-01-22T11:22:20.438Z,26.50
2018-01-22T11:24:47.938Z,28.10
2018-01-22T11:27:14.629Z,28.10
2018-01-22T11:29:41.400Z,28.10
2018-01-22T11:32:08.836Z,25.90
2018-01-22T11:34:35.553Z,25.90
2018-01-22T11:37:02.238Z,26.20
2018-01-22T11:39:29.662Z,28.70
2018-01-22T11:41:56.354Z,28.60
2018-01-22T11:44:23.767Z,26.80
2018-01-22T11:46:50.495Z,26.80
2018-01-22T11:49:17.259Z,27.10
2018-01-22T11:51:43.903Z,27.40
2018-01-22T11:54:10.573Z,27.30
2018-01-22T11:56:38.059Z,28.10
2018-01-22T12:01:33.855Z,32.00
2018-01-22T12:04:00.530Z,31.90
2018-01-22T12:06:28.046Z,30.00
2018-01-22T12:08:54.772Z,29.90
2018-01-22T12:11:21.516Z,28.90
2018-01-22T12:13:49.147Z,27.80
2018-01-22T12:16:16.584Z,29.10
2018-01-22T12:18:43.401Z,29.10
2018-01-22T12:23:39.147Z,34.20
2018-01-22T12:26:05.853Z,33.60
2018-01-22T12:33:29.815Z,36.60
2018-01-22T12:35:56.517Z,40.10
2018-01-22T12:38:23.214Z,43.40
2018-01-22T12:40:49.936Z,45.20
2018-01-22T12:43:16.641Z,46.70
2018-01-22T12:45:43.349Z,47.40
2018-01-22T12:48:10.129Z,47.40
2018-01-22T12:50:37.894Z,48.30
2018-01-22T12:53:04.640Z,48.80
2018-01-22T12:55:31.366Z,49.90
2018-01-22T12:57:58.838Z,51.10
2018-01-22T13:00:25.535Z,51.00
2018-01-22T13:02:52.283Z,51.40
2018-01-22T13:05:18.942Z,52.70
2018-01-22T13:07:46.790Z,52.50
2018-01-22T13:10:13.543Z,52.20
2018-01-22T13:12:43.601Z,52.30
2018-01-22T13:15:11.046Z,53.60
2018-01-22T13:17:38.515Z,52.40
2018-01-22T13:20:05.972Z,53.30
2018-01-22T13:22:33.469Z,53.50
2018-01-22T13:25:00.277Z,53.50
2018-01-22T13:27:27.725Z,53.90
2018-01-22T13:29:55.223Z,53.80
2018-01-22T13:32:21.993Z,53.80
2018-01-22T13:34:48.759Z,54.10
2018-01-22T13:37:15.452Z,54.00
2018-01-22T13:39:42.165Z,54.20
2018-01-22T13:42:08.912Z,54.50
2018-01-22T13:44:35.654Z,54.60
2018-01-22T13:47:02.393Z,55.30
2018-01-22T13:49:29.086Z,56.20
2018-01-22T13:51:59.877Z,56.00
2018-01-22T13:54:26.712Z,56.40
2018-01-22T13:56:53.402Z,57.20
2018-01-22T13:59:20.084Z,57.90
2018-01-22T14:01:46.800Z,58.10
2018-01-22T14:04:13.530Z,58.70
2018-01-22T14:06:40.205Z,57.30
2018-01-22T14:09:06.893Z,57.00
2018-01-22T14:11:33.574Z,58.30
2018-01-22T14:14:01.191Z,57.90
2018-01-22T14:16:27.905Z,57.50
2018-01-22T14:18:54.587Z,58.00
2018-01-22T14:21:21.304Z,57.90
2018-01-22T14:23:47.993Z,59.10
2018-01-22T14:26:17.534Z,59.00
2018-01-22T14:28:44.217Z,59.00
2018-01-22T14:31:12.054Z,60.00
2018-01-22T14:33:38.722Z,60.20
2018-01-22T14:36:05.445Z,60.70
2018-01-22T14:38:32.204Z,62.80
2018-01-22T14:40:58.998Z,62.40
2018-01-22T14:43:25.708Z,63.40
2018-01-22T14:45:52.437Z,63.40
2018-01-22T14:48:19.150Z,63.70
2018-01-22T14:50:45.888Z,63.00
2018-01-22T14:53:12.602Z,64.70
2018-01-22T14:55:40.003Z,66.00
2018-01-22T14:58:06.677Z,66.00
2018-01-22T15:00:33.395Z,66.70
2018-01-22T15:03:00.118Z,67.00
2018-01-22T15:05:26.878Z,68.50
2018-01-22T15:07:53.616Z,69.70
2018-01-22T15:10:20.329Z,70.40
2018-01-22T15:12:47.749Z,70.60
2018-01-22T15:15:14.489Z,70.50
2018-01-22T15:17:41.163Z,70.50
2018-01-22T15:20:08.748Z,71.00
2018-01-22T15:22:35.501Z,70.40
2018-01-22T15:25:02.285Z,71.50
2018-01-22T15:27:29.010Z,71.00
2018-01-22T15:29:55.801Z,70.80
2018-01-22T15:32:23.300Z,71.20
2018-01-22T15:34:51.098Z,71.10
2018-01-22T15:37:17.818Z,72.00
2018-01-22T15:39:44.498Z,72.60
2018-01-22T15:42:11.173Z,72.60
2018-01-22T15:44:38.628Z,73.60
2018-01-22T15:47:06.057Z,73.40
2018-01-22T15:49:32.739Z,73.40
2018-01-22T15:52:00.197Z,73.20
2018-01-22T15:54:27.595Z,73.90
2018-01-22T15:56:54.283Z,73.80
2018-01-22T15:59:21.023Z,73.70
2018-01-22T16:01:47.817Z,73.30
2018-01-22T16:04:14.521Z,75.60
2018-01-22T16:06:41.291Z,74.80
2018-01-22T16:09:08.784Z,73.80
2018-01-22T16:11:35.473Z,73.80
2018-01-22T16:14:02.205Z,75.50
2018-01-22T16:16:28.894Z,77.10
2018-01-22T16:18:55.634Z,76.20
2018-01-22T16:21:23.095Z,76.00
2018-01-22T16:23:49.810Z,76.10
2018-01-22T16:26:16.521Z,76.20
2018-01-22T16:28:43.254Z,76.70
2018-01-22T16:31:10.002Z,76.50
2018-01-22T16:33:36.745Z,77.30
2018-01-22T17:03:30.797Z,77.80
2018-01-22T17:06:01.699Z,81.40
2018-01-22T17:08:28.419Z,81.00
2018-01-22T17:10:55.195Z,81.30
2018-01-22T17:13:27.167Z,81.50
2018-01-22T17:15:55.790Z,81.50
2018-01-22T17:18:23.292Z,83.30
2018-01-22T17:20:50.103Z,83.20
2018-01-22T17:23:17.696Z,81.50
2018-01-22T17:25:44.378Z,81.40
2018-01-22T17:28:11.108Z,83.00
2018-01-22T17:30:38.952Z,82.70
2018-01-22T17:33:05.757Z,82.90
2018-01-22T17:35:32.448Z,82.70
2018-01-22T17:37:59.197Z,81.60
2018-01-22T17:40:26.049Z,82.50
2018-01-22T17:42:55.050Z,83.20
2018-01-22T17:45:23.886Z,83.10
2018-01-22T17:47:50.617Z,81.50
2018-01-22T17:50:17.325Z,82.90
2018-01-22T17:52:44.034Z,83.20
2018-01-22T17:55:11.485Z,83.00
2018-01-22T17:57:40.020Z,84.20
2018-01-22T18:00:06.782Z,83.40
2018-01-22T18:02:34.525Z,84.60
2018-01-22T18:05:01.208Z,85.40
2018-01-22T18:07:27.916Z,84.60
2018-01-22T18:09:54.615Z,84.10
2018-01-22T18:12:23.195Z,84.40
2018-01-22T18:14:49.923Z,84.40
2018-01-22T18:17:16.816Z,85.90
2018-01-22T18:19:44.195Z,86.70
2018-01-22T18:22:12.003Z,87.40
2018-01-22T18:24:39.872Z,87.60
2018-01-22T18:27:07.432Z,88.90
2018-01-22T18:29:47.750Z,88.80
2018-01-22T18:32:14.486Z,89.50
2018-01-22T18:34:41.204Z,89.00
2018-01-22T18:37:08.655Z,90.40
2018-01-22T18:39:38.672Z,90.40
2018-01-22T18:42:05.458Z,90.20
2018-01-22T18:44:32.197Z,90.80
2018-01-22T18:46:58.956Z,90.70
2018-01-22T18:49:25.647Z,91.10
2018-01-22T18:51:52.366Z,90.50
2018-01-22T18:54:22.930Z,90.10
2018-01-22T18:56:49.693Z,90.90
2018-01-22T18:59:17.138Z,90.40
2018-01-22T19:01:43.829Z,90.40
2018-01-22T19:04:10.585Z,90.90
2018-01-22T19:06:37.400Z,90.70
2018-01-22T19:09:11.365Z,90.20
2018-01-22T19:11:38.275Z,90.50
2018-01-22T19:14:05.137Z,90.30
2018-01-22T19:16:32.872Z,90.50
2018-01-22T19:19:04.502Z,89.50
2018-01-22T19:21:31.286Z,90.00
2018-01-22T19:24:00.138Z,90.50
2018-01-22T19:26:26.879Z,90.50
2018-01-22T19:28:54.112Z,91.20
2018-01-22T19:31:20.860Z,91.20
2018-01-22T19:33:47.571Z,91.40
2018-01-22T19:36:14.269Z,91.90
2018-01-22T19:38:41.058Z,92.30
2018-01-22T19:41:08.022Z,93.30
2018-01-22T19:43:35.291Z,93.40
2018-01-22T19:46:02.196Z,93.90
2018-01-22T19:48:29.690Z,93.70
2018-01-22T19:50:56.418Z,93.70
2018-01-22T19:53:23.305Z,93.80
2018-01-22T19:55:50.028Z,94.40
2018-01-22T19:58:16.798Z,94.70
2018-01-22T20:00:43.800Z,94.60
2018-01-22T20:03:11.192Z,94.40
2018-01-22T20:05:37.968Z,94.20
2018-01-22T20:08:04.818Z,94.10
2018-01-22T20:10:31.523Z,93.60
2018-01-22T20:12:58.268Z,94.00
2018-01-22T20:15:24.955Z,94.20
2018-01-22T20:17:52.691Z,93.70
2018-01-22T20:20:19.364Z,93.80
2018-01-22T20:22:46.092Z,93.40
2018-01-22T20:25:13.038Z,93.30
2018-01-22T20:27:39.787Z,93.40
2018-01-22T20:30:06.604Z,93.70
2018-01-22T20:32:33.320Z,94.00
2018-01-22T20:35:00.050Z,93.80
2018-01-22T20:37:27.537Z,93.50
2018-01-22T20:39:54.295Z,93.50
2018-01-22T20:42:21.042Z,94.10
2018-01-22T20:44:47.766Z,94.40
2018-01-22T20:47:14.547Z,94.10
2018-01-22T20:49:41.510Z,94.10
2018-01-22T20:52:08.277Z,94.60
2018-01-22T20:54:35.713Z,94.90
2018-01-22T20:57:06.103Z,94.90
2018-01-22T20:59:32.905Z,94.80
2018-01-22T21:02:00.451Z,94.70
2018-01-22T21:04:27.188Z,94.60
2018-01-22T21:06:53.919Z,94.70
2018-01-22T21:09:20.619Z,94.80
2018-01-22T21:11:51.471Z,94.80
2018-01-22T21:14:28.814Z,94.80
2018-01-22T21:16:55.674Z,94.50
2018-01-22T21:19:22.384Z,94.40
2018-01-22T21:21:49.087Z,94.30
2018-01-22T21:24:16.529Z,95.10
2018-01-22T21:26:43.230Z,95.00
2018-01-22T21:29:09.990Z,94.40
2018-01-22T21:31:36.717Z,94.10
2018-01-22T21:34:03.545Z,94.80
2018-01-22T21:36:43.251Z,94.30
2018-01-22T21:39:15.225Z,94.00
2018-01-22T21:41:43.994Z,94.10
2018-01-22T21:44:10.809Z,94.00
2018-01-22T21:46:37.530Z,94.00
2018-01-22T21:49:04.247Z,93.70
2018-01-22T21:51:41.434Z,93.30
2018-01-22T21:54:15.121Z,93.00
2018-01-22T21:56:45.890Z,93.90
2018-01-22T21:59:13.378Z,93.60
2018-01-22T22:01:40.210Z,93.60
2018-01-22T22:04:07.638Z,93.80
2018-01-22T22:06:43.209Z,93.80
2018-01-22T22:09:10.654Z,93.60
2018-01-22T22:11:43.854Z,93.60
2018-01-22T22:14:12.404Z,93.50
2018-01-22T22:16:40.708Z,93.10
2018-01-22T22:19:07.524Z,93.10
2018-01-22T22:21:34.224Z,93.00
2018-01-22T22:24:01.714Z,93.70
2018-01-22T22:26:28.462Z,93.70
2018-01-22T22:29:05.658Z,93.60
2018-01-22T22:31:32.368Z,93.40
2018-01-22T22:34:03.802Z,93.30
2018-01-22T22:36:37.989Z,93.30
2018-01-22T22:39:15.598Z,92.90
2018-01-22T22:41:42.342Z,92.70
2018-01-22T22:44:09.048Z,93.00
2018-01-22T22:46:35.767Z,93.00
2018-01-22T22:49:05.406Z,94.60
2018-01-22T22:51:39.534Z,94.60
2018-01-22T22:54:06.242Z,94.50
2018-01-22T22:56:33.659Z,93.70
2018-01-22T22:59:00.369Z,93.70
2018-01-22T23:01:27.153Z,93.70
2018-01-22T23:03:53.881Z,94.60
2018-01-22T23:06:20.579Z,94.70
2018-01-22T23:08:54.663Z,93.50
2018-01-22T23:11:22.122Z,93.10
2018-01-22T23:13:48.785Z,93.00
2018-01-22T23:16:15.513Z,93.60
2018-01-22T23:18:42.197Z,93.30
2018-01-22T23:21:33.573Z,93.00
2018-01-22T23:24:00.299Z,93.70
2018-01-22T23:26:29.114Z,95.10
2018-01-22T23:29:03.932Z,94.50
2018-01-22T23:31:30.659Z,94.40
2018-01-22T23:33:57.338Z,94.70
2018-01-22T23:36:24.175Z,94.30
2018-01-22T23:38:50.846Z,94.00
2018-01-22T23:41:17.558Z,94.00
2018-01-22T23:43:44.265Z,94.20
2018-01-22T23:46:10.928Z,93.70
2018-01-22T23:48:37.600Z,93.80
2018-01-22T23:51:04.350Z,93.70
2018-01-22T23:53:31.035Z,93.70
2018-01-22T23:55:57.725Z,92.90
2018-01-22T23:58:24.426Z,93.10
